sensor_id;sensor_type;location;lat;lon;timestamp;pressure;altitude;pressure_sealevel;temperature;humidity
59787;BME280;45672;51.612;5.536;2023-02-11T00:00:58;103272.16;;;5.79;100.00
59787;BME280;45672;51.612;5.536;2023-02-11T00:03:24;103251.78;;;5.81;100.00
59787;BME280;45672;51.612;5.536;2023-02-11T00:05:59;103252.66;;;5.81;100.00
59787;BME280;45672;51.612;5.536;2023-02-11T00:08:25;103255.31;;;5.81;100.00
59787;BME280;45672;51.612;5.536;2023-02-11T00:10:55;103255.31;;;5.81;100.00
59787;BME280;45672;51.612;5.536;2023-02-11T00:13:21;103259.72;;;5.81;100.00
59787;BME280;45672;51.612;5.536;2023-02-11T00:15:47;103256.16;;;5.82;100.00
59787;BME280;45672;51.612;5.536;2023-02-11T00:18:12;103243.88;;;5.81;100.00
59787;BME280;45672;51.612;5.536;2023-02-11T00:20:38;103248.25;;;5.82;100.00
59787;BME280;45672;51.612;5.536;2023-02-11T00:23:04;103242.09;;;5.81;100.00
59787;BME280;45672;51.612;5.536;2023-02-11T00:25:29;103237.59;;;5.83;100.00
59787;BME280;45672;51.612;5.536;2023-02-11T00:27:55;103233.22;;;5.82;100.00
59787;BME280;45672;51.612;5.536;2023-02-11T00:30:21;103237.81;;;5.79;100.00
59787;BME280;45672;51.612;5.536;2023-02-11T00:32:46;103248.25;;;5.82;100.00
59787;BME280;45672;51.612;5.536;2023-02-11T00:35:11;103240.31;;;5.82;100.00
59787;BME280;45672;51.612;5.536;2023-02-11T00:37:36;103242.03;;;5.83;100.00
59787;BME280;45672;51.612;5.536;2023-02-11T00:40:03;103238.50;;;5.82;100.00
59787;BME280;45672;51.612;5.536;2023-02-11T00:42:29;103230.59;;;5.82;100.00
59787;BME280;45672;51.612;5.536;2023-02-11T00:44:54;103234.97;;;5.83;100.00
59787;BME280;45672;51.612;5.536;2023-02-11T00:47:19;103235.94;;;5.81;100.00
59787;BME280;45672;51.612;5.536;2023-02-11T00:49:45;103232.31;;;5.83;100.00
59787;BME280;45672;51.612;5.536;2023-02-11T00:52:10;103234.88;;;5.85;100.00
59787;BME280;45672;51.612;5.536;2023-02-11T00:54:35;103236.63;;;5.86;100.00
59787;BME280;45672;51.612;5.536;2023-02-11T00:57:01;103241.16;;;5.82;100.00
59787;BME280;45672;51.612;5.536;2023-02-11T00:59:26;103242.81;;;5.85;100.00
59787;BME280;45672;51.612;5.536;2023-02-11T01:01:52;103238.38;;;5.85;100.00
59787;BME280;45672;51.612;5.536;2023-02-11T01:04:17;103245.47;;;5.85;100.00
59787;BME280;45672;51.612;5.536;2023-02-11T01:06:42;103252.47;;;5.86;100.00
59787;BME280;45672;51.612;5.536;2023-02-11T01:09:08;103254.19;;;5.87;100.00
59787;BME280;45672;51.612;5.536;2023-02-11T01:11:33;103249.75;;;5.87;100.00
59787;BME280;45672;51.612;5.536;2023-02-11T01:13:58;103249.81;;;5.86;100.00
59787;BME280;45672;51.612;5.536;2023-02-11T01:16:24;103247.25;;;5.84;100.00
59787;BME280;45672;51.612;5.536;2023-02-11T01:18:49;103253.44;;;5.83;100.00
59787;BME280;45672;51.612;5.536;2023-02-11T01:21:14;103260.53;;;5.83;100.00
59787;BME280;45672;51.612;5.536;2023-02-11T01:23:40;103257.88;;;5.83;100.00
59787;BME280;45672;51.612;5.536;2023-02-11T01:26:06;103254.38;;;5.82;100.00
59787;BME280;45672;51.612;5.536;2023-02-11T01:28:32;103265.00;;;5.81;100.00
59787;BME280;45672;51.612;5.536;2023-02-11T01:30:59;103258.00;;;5.80;100.00
59787;BME280;45672;51.612;5.536;2023-02-11T01:33:24;103253.59;;;5.80;100.00
59787;BME280;45672;51.612;5.536;2023-02-11T01:35:50;103249.09;;;5.82;100.00
59787;BME280;45672;51.612;5.536;2023-02-11T01:38:22;103242.09;;;5.81;100.00
59787;BME280;45672;51.612;5.536;2023-02-11T01:40:58;103238.44;;;5.84;100.00
59787;BME280;45672;51.612;5.536;2023-02-11T01:43:25;103227.94;;;5.82;100.00
59787;BME280;45672;51.612;5.536;2023-02-11T01:49:21;103211.38;;;5.79;100.00
59787;BME280;45672;51.612;5.536;2023-02-11T01:52:03;103214.16;;;5.76;100.00
59787;BME280;45672;51.612;5.536;2023-02-11T01:54:34;103213.34;;;5.74;100.00
59787;BME280;45672;51.612;5.536;2023-02-11T01:57:21;103211.75;;;5.69;100.00
59787;BME280;45672;51.612;5.536;2023-02-11T02:03:11;103211.91;;;5.66;100.00
59787;BME280;45672;51.612;5.536;2023-02-11T02:05:44;103204.25;;;5.60;100.00
59787;BME280;45672;51.612;5.536;2023-02-11T02:08:22;103214.00;;;5.58;100.00
59787;BME280;45672;51.612;5.536;2023-02-11T02:10:52;103205.28;;;5.56;100.00
59787;BME280;45672;51.612;5.536;2023-02-11T02:13:21;103214.13;;;5.55;100.00
59787;BME280;45672;51.612;5.536;2023-02-11T02:18:45;103232.53;;;5.57;100.00
59787;BME280;45672;51.612;5.536;2023-02-11T02:27:11;103214.00;;;5.58;100.00
59787;BME280;45672;51.612;5.536;2023-02-11T02:29:55;103212.16;;;5.60;100.00
59787;BME280;45672;51.612;5.536;2023-02-11T02:32:36;103207.72;;;5.61;100.00
59787;BME280;45672;51.612;5.536;2023-02-11T02:35:46;103220.00;;;5.62;100.00
59787;BME280;45672;51.612;5.536;2023-02-11T02:38:18;103212.16;;;5.60;100.00
59787;BME280;45672;51.612;5.536;2023-02-11T02:41:07;103212.16;;;5.60;100.00
59787;BME280;45672;51.612;5.536;2023-02-11T02:43:33;103207.72;;;5.61;100.00
59787;BME280;45672;51.612;5.536;2023-02-11T02:48:49;103200.78;;;5.58;100.00
59787;BME280;45672;51.612;5.536;2023-02-11T02:54:19;103201.59;;;5.60;100.00
59787;BME280;45672;51.612;5.536;2023-02-11T02:59:52;103219.28;;;5.58;100.00
59787;BME280;45672;51.612;5.536;2023-02-11T03:02:32;103208.72;;;5.58;100.00
59787;BME280;45672;51.612;5.536;2023-02-11T03:05:13;103210.44;;;5.59;100.00
59787;BME280;45672;51.612;5.536;2023-02-11T03:07:47;103202.50;;;5.59;100.00
59787;BME280;45672;51.612;5.536;2023-02-11T03:10:29;103202.50;;;5.59;100.00
59787;BME280;45672;51.612;5.536;2023-02-11T03:12:56;103194.66;;;5.58;100.00
59787;BME280;45672;51.612;5.536;2023-02-11T03:15:23;103194.72;;;5.56;100.00
59787;BME280;45672;51.612;5.536;2023-02-11T03:17:52;103194.72;;;5.56;100.00
59787;BME280;45672;51.612;5.536;2023-02-11T03:20:20;103191.28;;;5.54;100.00
59787;BME280;45672;51.612;5.536;2023-02-11T03:22:51;103187.72;;;5.55;100.00
59787;BME280;45672;51.612;5.536;2023-02-11T03:25:21;103186.94;;;5.53;100.00
59787;BME280;45672;51.612;5.536;2023-02-11T03:28:05;103181.72;;;5.51;100.00
59787;BME280;45672;51.612;5.536;2023-02-11T03:30:38;103188.81;;;5.49;100.00
59787;BME280;45672;51.612;5.536;2023-02-11T03:33:12;103193.31;;;5.47;100.00
59787;BME280;45672;51.612;5.536;2023-02-11T03:35:39;103199.31;;;5.51;100.00
59787;BME280;45672;51.612;5.536;2023-02-11T03:38:13;103199.38;;;5.49;100.00
59787;BME280;45672;51.612;5.536;2023-02-11T03:40:42;103213.50;;;5.48;100.00
59787;BME280;45672;51.612;5.536;2023-02-11T03:43:37;103204.81;;;5.46;100.00
59787;BME280;45672;51.612;5.536;2023-02-11T03:46:05;103196.94;;;5.45;100.00
59787;BME280;45672;51.612;5.536;2023-02-11T03:48:41;103204.06;;;5.43;100.00
59787;BME280;45672;51.612;5.536;2023-02-11T03:51:10;103204.00;;;5.44;100.00
59787;BME280;45672;51.612;5.536;2023-02-11T03:53:37;103195.22;;;5.44;100.00
59787;BME280;45672;51.612;5.536;2023-02-11T03:56:08;103191.72;;;5.43;100.00
59787;BME280;45672;51.612;5.536;2023-02-11T03:58:35;103187.38;;;5.42;100.00
59787;BME280;45672;51.612;5.536;2023-02-11T04:01:00;103176.88;;;5.41;100.00
59787;BME280;45672;51.612;5.536;2023-02-11T04:03:26;103174.38;;;5.38;100.00
59787;BME280;45672;51.612;5.536;2023-02-11T04:05:52;103174.50;;;5.34;100.00
59787;BME280;45672;51.612;5.536;2023-02-11T04:08:18;103184.13;;;5.35;100.00
59787;BME280;45672;51.612;5.536;2023-02-11T04:10:44;103172.69;;;5.35;100.00
59787;BME280;45672;51.612;5.536;2023-02-11T04:13:09;103150.00;;;5.31;100.00
59787;BME280;45672;51.612;5.536;2023-02-11T04:15:34;103152.50;;;5.34;100.00
59787;BME280;45672;51.612;5.536;2023-02-11T04:18:00;103144.56;;;5.34;100.00
59787;BME280;45672;51.612;5.536;2023-02-11T04:20:27;103149.00;;;5.33;100.00
59787;BME280;45672;51.612;5.536;2023-02-11T04:22:52;103143.78;;;5.32;100.00
59787;BME280;45672;51.612;5.536;2023-02-11T04:25:18;103146.44;;;5.32;100.00
59787;BME280;45672;51.612;5.536;2023-02-11T04:27:43;103149.06;;;5.32;100.00
59787;BME280;45672;51.612;5.536;2023-02-11T04:30:08;103150.06;;;5.29;100.00
59787;BME280;45672;51.612;5.536;2023-02-11T04:32:34;103162.41;;;5.29;100.00
59787;BME280;45672;51.612;5.536;2023-02-11T04:34:59;103157.13;;;5.29;100.00
59787;BME280;45672;51.612;5.536;2023-02-11T04:37:24;103166.75;;;5.30;100.00
59787;BME280;45672;51.612;5.536;2023-02-11T04:39:50;103168.47;;;5.31;100.00
59787;BME280;45672;51.612;5.536;2023-02-11T04:42:15;103170.19;;;5.32;100.00
59787;BME280;45672;51.612;5.536;2023-02-11T04:44:40;103167.50;;;5.33;100.00
59787;BME280;45672;51.612;5.536;2023-02-11T04:47:06;103170.91;;;5.35;100.00
59787;BME280;45672;51.612;5.536;2023-02-11T04:49:31;103172.69;;;5.35;100.00
59787;BME280;45672;51.612;5.536;2023-02-11T04:51:56;103177.91;;;5.37;100.00
59787;BME280;45672;51.612;5.536;2023-02-11T04:54:21;103181.34;;;5.39;100.00
59787;BME280;45672;51.612;5.536;2023-02-11T04:56:47;103180.44;;;5.40;100.00
59787;BME280;45672;51.612;5.536;2023-02-11T04:59:14;103182.94;;;5.43;100.00
59787;BME280;45672;51.612;5.536;2023-02-11T05:01:39;103183.81;;;5.43;100.00
59787;BME280;45672;51.612;5.536;2023-02-11T05:04:05;103175.81;;;5.45;100.00
59787;BME280;45672;51.612;5.536;2023-02-11T05:06:30;103177.56;;;5.46;100.00
59787;BME280;45672;51.612;5.536;2023-02-11T05:08:56;103170.41;;;5.48;100.00
59787;BME280;45672;51.612;5.536;2023-02-11T05:11:23;103179.13;;;5.50;100.00
59787;BME280;45672;51.612;5.536;2023-02-11T05:13:50;103178.19;;;5.51;100.00
59787;BME280;45672;51.612;5.536;2023-02-11T05:16:16;103183.41;;;5.52;100.00
59787;BME280;45672;51.612;5.536;2023-02-11T05:18:42;103183.34;;;5.54;100.00
59787;BME280;45672;51.612;5.536;2023-02-11T05:21:11;103176.22;;;5.56;100.00
59787;BME280;45672;51.612;5.536;2023-02-11T05:23:38;103165.81;;;5.53;100.00
59787;BME280;45672;51.612;5.536;2023-02-11T05:26:03;103172.63;;;5.59;100.00
59787;BME280;45672;51.612;5.536;2023-02-11T05:28:29;103171.66;;;5.60;100.00
59787;BME280;45672;51.612;5.536;2023-02-11T05:30:54;103168.19;;;5.59;100.00
59787;BME280;45672;51.612;5.536;2023-02-11T05:33:20;103169.03;;;5.60;100.00
59787;BME280;45672;51.612;5.536;2023-02-11T05:35:45;103165.53;;;5.59;100.00
59787;BME280;45672;51.612;5.536;2023-02-11T05:38:11;103168.25;;;5.58;100.00
59787;BME280;45672;51.612;5.536;2023-02-11T05:40:36;103172.69;;;5.57;100.00
59787;BME280;45672;51.612;5.536;2023-02-11T05:43:02;103161.16;;;5.58;100.00
59787;BME280;45672;51.612;5.536;2023-02-11T05:45:27;103159.50;;;5.56;100.00
59787;BME280;45672;51.612;5.536;2023-02-11T05:47:53;103168.31;;;5.56;100.00
59787;BME280;45672;51.612;5.536;2023-02-11T05:50:18;103155.31;;;5.51;100.00
59787;BME280;45672;51.612;5.536;2023-02-11T05:52:44;103165.88;;;5.51;100.00
59787;BME280;45672;51.612;5.536;2023-02-11T05:55:09;103175.56;;;5.51;100.00
59787;BME280;45672;51.612;5.536;2023-02-11T05:57:35;103169.44;;;5.50;100.00
59787;BME280;45672;51.612;5.536;2023-02-11T06:00:00;103174.72;;;5.50;100.00
59787;BME280;45672;51.612;5.536;2023-02-11T06:02:26;103167.78;;;5.48;100.00
59787;BME280;45672;51.612;5.536;2023-02-11T06:04:51;103162.28;;;5.52;100.00
59787;BME280;45672;51.612;5.536;2023-02-11T06:07:16;103159.72;;;5.51;100.00
59787;BME280;45672;51.612;5.536;2023-02-11T06:09:43;103168.50;;;5.51;100.00
59787;BME280;45672;51.612;5.536;2023-02-11T06:12:09;103169.44;;;5.50;100.00
59787;BME280;45672;51.612;5.536;2023-02-11T06:14:35;103175.56;;;5.51;100.00
59787;BME280;45672;51.612;5.536;2023-02-11T06:17:00;103175.56;;;5.51;100.00
59787;BME280;45672;51.612;5.536;2023-02-11T06:19:25;103174.63;;;5.52;100.00
59787;BME280;45672;51.612;5.536;2023-02-11T06:21:51;103185.13;;;5.53;100.00
59787;BME280;45672;51.612;5.536;2023-02-11T06:24:16;103185.13;;;5.53;100.00
59787;BME280;45672;51.612;5.536;2023-02-11T06:26:41;103184.16;;;5.56;100.00
59787;BME280;45672;51.612;5.536;2023-02-11T06:29:07;103190.22;;;5.58;100.00
59787;BME280;45672;51.612;5.536;2023-02-11T06:31:32;103185.75;;;5.60;100.00
59787;BME280;45672;51.612;5.536;2023-02-11T06:33:58;103185.75;;;5.60;100.00
59787;BME280;45672;51.612;5.536;2023-02-11T06:36:24;103175.13;;;5.62;100.00
59787;BME280;45672;51.612;5.536;2023-02-11T06:38:49;103175.06;;;5.63;100.00
59787;BME280;45672;51.612;5.536;2023-02-11T06:41:19;103177.69;;;5.63;100.00
59787;BME280;45672;51.612;5.536;2023-02-11T06:43:45;103168.97;;;5.61;100.00
59787;BME280;45672;51.612;5.536;2023-02-11T06:46:10;103180.19;;;5.66;100.00
59787;BME280;45672;51.612;5.536;2023-02-11T06:48:36;103183.75;;;5.65;100.00
59787;BME280;45672;51.612;5.536;2023-02-11T06:51:06;103190.69;;;5.68;100.00
59787;BME280;45672;51.612;5.536;2023-02-11T06:53:35;103190.69;;;5.68;100.00
59787;BME280;45672;51.612;5.536;2023-02-11T06:56:02;103196.78;;;5.70;100.00
59787;BME280;45672;51.612;5.536;2023-02-11T06:58:28;103190.63;;;5.69;100.00
59787;BME280;45672;51.612;5.536;2023-02-11T07:00:53;103188.00;;;5.69;100.00
59787;BME280;45672;51.612;5.536;2023-02-11T07:03:18;103190.50;;;5.73;100.00
59787;BME280;45672;51.612;5.536;2023-02-11T07:05:43;103195.78;;;5.73;100.00
59787;BME280;45672;51.612;5.536;2023-02-11T07:08:09;103196.66;;;5.73;100.00
59787;BME280;45672;51.612;5.536;2023-02-11T07:10:34;103196.66;;;5.73;100.00
59787;BME280;45672;51.612;5.536;2023-02-11T07:13:00;103200.94;;;5.76;100.00
59787;BME280;45672;51.612;5.536;2023-02-11T07:15:26;103207.09;;;5.76;100.00
59787;BME280;45672;51.612;5.536;2023-02-11T07:17:51;103207.00;;;5.78;100.00
59787;BME280;45672;51.612;5.536;2023-02-11T07:20:17;103209.66;;;5.78;100.00
59787;BME280;45672;51.612;5.536;2023-02-11T07:22:42;103209.59;;;5.79;100.00
59787;BME280;45672;51.612;5.536;2023-02-11T07:25:07;103212.16;;;5.81;100.00
59787;BME280;45672;51.612;5.536;2023-02-11T07:27:32;103217.44;;;5.81;100.00
59787;BME280;45672;51.612;5.536;2023-02-11T07:29:58;103214.72;;;5.82;100.00
59787;BME280;45672;51.612;5.536;2023-02-11T07:32:23;103208.53;;;5.83;100.00
59787;BME280;45672;51.612;5.536;2023-02-11T07:34:48;103217.25;;;5.85;100.00
59787;BME280;45672;51.612;5.536;2023-02-11T07:37:14;103220.75;;;5.86;100.00
59787;BME280;45672;51.612;5.536;2023-02-11T07:39:39;103225.97;;;5.87;100.00
59787;BME280;45672;51.612;5.536;2023-02-11T07:42:05;103221.53;;;5.88;100.00
59787;BME280;45672;51.612;5.536;2023-02-11T07:44:30;103231.97;;;5.91;100.00
59787;BME280;45672;51.612;5.536;2023-02-11T07:46:57;103235.44;;;5.93;100.00
59787;BME280;45672;51.612;5.536;2023-02-11T07:49:23;103236.22;;;5.95;100.00
59787;BME280;45672;51.612;5.536;2023-02-11T07:51:51;103238.78;;;5.97;100.00
59787;BME280;45672;51.612;5.536;2023-02-11T07:54:17;103242.19;;;6.00;100.00
59787;BME280;45672;51.612;5.536;2023-02-11T07:56:42;103242.19;;;6.00;100.00
59787;BME280;45672;51.612;5.536;2023-02-11T07:59:07;103244.78;;;6.02;100.00
59787;BME280;45672;51.612;5.536;2023-02-11T08:01:33;103243.84;;;6.03;100.00
59787;BME280;45672;51.612;5.536;2023-02-11T08:03:59;103244.69;;;6.03;100.00
59787;BME280;45672;51.612;5.536;2023-02-11T08:06:28;103247.34;;;6.03;100.00
59787;BME280;45672;51.612;5.536;2023-02-11T08:08:54;103249.06;;;6.04;100.00
59787;BME280;45672;51.612;5.536;2023-02-11T08:11:24;103249.72;;;6.10;100.00
59787;BME280;45672;51.612;5.536;2023-02-11T08:13:50;103244.31;;;6.13;100.00
59787;BME280;45672;51.612;5.536;2023-02-11T08:16:33;103245.16;;;6.13;100.00
59787;BME280;45672;51.612;5.536;2023-02-11T08:18:59;103244.19;;;6.16;100.00
59787;BME280;45672;51.612;5.536;2023-02-11T08:21:26;103253.03;;;6.15;100.00
59787;BME280;45672;51.612;5.536;2023-02-11T08:23:52;103254.69;;;6.17;100.00
59787;BME280;45672;51.612;5.536;2023-02-11T08:26:20;103255.53;;;6.18;100.00
59787;BME280;45672;51.612;5.536;2023-02-11T08:28:47;103253.69;;;6.20;100.00
59787;BME280;45672;51.612;5.536;2023-02-11T08:31:16;103258.00;;;6.23;100.00
59787;BME280;45672;51.612;5.536;2023-02-11T08:33:42;103266.72;;;6.25;100.00
59787;BME280;45672;51.612;5.536;2023-02-11T08:36:11;103270.19;;;6.25;100.00
59787;BME280;45672;51.612;5.536;2023-02-11T08:38:37;103262.19;;;6.27;100.00
59787;BME280;45672;51.612;5.536;2023-02-11T08:41:02;103253.50;;;6.25;100.00
59787;BME280;45672;51.612;5.536;2023-02-11T08:43:28;103272.59;;;6.31;100.00
59787;BME280;45672;51.612;5.536;2023-02-11T08:45:53;103264.59;;;6.33;100.00
59787;BME280;45672;51.612;5.536;2023-02-11T08:48:18;103259.09;;;6.37;100.00
59787;BME280;45672;51.612;5.536;2023-02-11T08:50:43;103263.47;;;6.38;100.00
59787;BME280;45672;51.612;5.536;2023-02-11T08:53:09;103262.53;;;6.39;100.00
59787;BME280;45672;51.612;5.536;2023-02-11T08:55:34;103271.25;;;6.42;100.00
59787;BME280;45672;51.612;5.536;2023-02-11T08:57:59;103272.91;;;6.44;100.00
59787;BME280;45672;51.612;5.536;2023-02-11T09:00:25;103271.97;;;6.45;100.00
59787;BME280;45672;51.612;5.536;2023-02-11T09:02:50;103264.03;;;6.45;100.00
59787;BME280;45672;51.612;5.536;2023-02-11T09:05:15;103268.34;;;6.48;100.00
59787;BME280;45672;51.612;5.536;2023-02-11T09:07:41;103264.78;;;6.49;100.00
59787;BME280;45672;51.612;5.536;2023-02-11T09:10:07;103269.06;;;6.51;100.00
59787;BME280;45672;51.612;5.536;2023-02-11T09:12:32;103269.84;;;6.53;100.00
59787;BME280;45672;51.612;5.536;2023-02-11T09:14:59;103269.69;;;6.56;100.00
59787;BME280;45672;51.612;5.536;2023-02-11T09:17:25;103273.00;;;6.62;100.00
59787;BME280;45672;51.612;5.536;2023-02-11T09:19:50;103277.38;;;6.63;100.00
59787;BME280;45672;51.612;5.536;2023-02-11T09:22:15;103281.63;;;6.67;100.00
59787;BME280;45672;51.612;5.536;2023-02-11T09:24:41;103278.09;;;6.66;100.00
59787;BME280;45672;51.612;5.536;2023-02-11T09:27:06;103290.31;;;6.69;100.00
59787;BME280;45672;51.612;5.536;2023-02-11T09:29:31;103289.34;;;6.71;100.00
59787;BME280;45672;51.612;5.536;2023-02-11T09:31:57;103289.25;;;6.73;100.00
59787;BME280;45672;51.612;5.536;2023-02-11T09:34:22;103295.41;;;6.73;100.00
59787;BME280;45672;51.612;5.536;2023-02-11T09:36:47;103298.84;;;6.76;100.00
59787;BME280;45672;51.612;5.536;2023-02-11T09:39:17;103303.09;;;6.80;100.00
59787;BME280;45672;51.612;5.536;2023-02-11T09:42:02;103303.00;;;6.81;100.00
59787;BME280;45672;51.612;5.536;2023-02-11T09:44:34;103301.06;;;6.85;100.00
59787;BME280;45672;51.612;5.536;2023-02-11T09:47:05;103301.94;;;6.85;100.00
59787;BME280;45672;51.612;5.536;2023-02-11T09:50:20;103308.88;;;6.88;100.00
59787;BME280;45672;51.612;5.536;2023-02-11T09:52:33;103306.88;;;6.93;100.00
59787;BME280;45672;51.612;5.536;2023-02-11T09:55:02;103307.53;;;6.98;100.00
59787;BME280;45672;51.612;5.536;2023-02-11T09:57:49;103283.06;;;6.93;100.00
59787;BME280;45672;51.612;5.536;2023-02-11T10:00:39;103307.91;;;7.10;100.00
59787;BME280;45672;51.612;5.536;2023-02-11T10:11:30;103324.91;;;7.23;100.00
59787;BME280;45672;51.612;5.536;2023-02-11T10:16:51;103336.94;;;7.11;100.00
59787;BME280;45672;51.612;5.536;2023-02-11T10:19:35;103338.94;;;7.06;100.00
59787;BME280;45672;51.612;5.536;2023-02-11T10:24:34;103346.09;;;7.04;100.00
59787;BME280;45672;51.612;5.536;2023-02-11T10:27:03;103345.38;;;7.00;100.00
59787;BME280;45672;51.612;5.536;2023-02-11T10:29:37;103349.97;;;6.97;100.00
59787;BME280;45672;51.612;5.536;2023-02-11T10:32:26;103354.50;;;6.93;100.00
59787;BME280;45672;51.612;5.536;2023-02-11T10:34:59;103355.31;;;6.95;100.00
59787;BME280;45672;51.612;5.536;2023-02-11T10:37:25;103364.09;;;6.96;100.00
59787;BME280;45672;51.612;5.536;2023-02-11T10:39:51;103370.41;;;6.93;100.00
59787;BME280;45672;51.612;5.536;2023-02-11T10:42:16;103368.81;;;6.89;100.00
59787;BME280;45672;51.612;5.536;2023-02-11T10:45:00;103357.38;;;6.88;100.00
59787;BME280;45672;51.612;5.536;2023-02-11T10:47:29;103370.13;;;6.99;100.00
59787;BME280;45672;51.612;5.536;2023-02-11T10:49:58;103360.78;;;7.11;100.00
59787;BME280;45672;51.612;5.536;2023-02-11T10:52:28;103367.44;;;7.20;100.00
59787;BME280;45672;51.612;5.536;2023-02-11T10:55:27;103375.06;;;7.26;100.00
59787;BME280;45672;51.612;5.536;2023-02-11T10:57:53;103372.16;;;7.32;100.00
59787;BME280;45672;51.612;5.536;2023-02-11T11:02:53;103377.69;;;7.47;100.00
59787;BME280;45672;51.612;5.536;2023-02-11T11:05:45;103385.31;;;7.53;100.00
59787;BME280;45672;51.612;5.536;2023-02-11T11:08:09;103382.19;;;7.64;100.00
59787;BME280;45672;51.612;5.536;2023-02-11T11:10:45;103376.41;;;7.73;100.00
59787;BME280;45672;51.612;5.536;2023-02-11T11:13:32;103379.63;;;7.80;100.00
59787;BME280;45672;51.612;5.536;2023-02-11T11:18:32;103383.47;;;7.91;100.00
59787;BME280;45672;51.612;5.536;2023-02-11T11:21:00;103382.31;;;7.97;100.00
59787;BME280;45672;51.612;5.536;2023-02-11T11:23:27;103382.88;;;8.04;100.00
59787;BME280;45672;51.612;5.536;2023-02-11T11:26:09;103381.50;;;8.14;100.00
59787;BME280;45672;51.612;5.536;2023-02-11T11:28:38;103386.28;;;8.25;100.00
59787;BME280;45672;51.612;5.536;2023-02-11T11:31:11;103395.00;;;8.27;100.00
59787;BME280;45672;51.612;5.536;2023-02-11T11:33:40;103392.75;;;8.19;100.00
59787;BME280;45672;51.612;5.536;2023-02-11T11:36:09;103398.28;;;8.15;100.00
59787;BME280;45672;51.612;5.536;2023-02-11T11:38:43;103391.41;;;8.10;100.00
59787;BME280;45672;51.612;5.536;2023-02-11T11:44:16;103396.06;;;8.05;100.00
59787;BME280;45672;51.612;5.536;2023-02-11T11:46:48;103391.69;;;8.04;100.00
59787;BME280;45672;51.612;5.536;2023-02-11T11:49:18;103389.03;;;8.04;100.00
59787;BME280;45672;51.612;5.536;2023-02-11T11:51:54;103384.53;;;8.06;100.00
59787;BME280;45672;51.612;5.536;2023-02-11T11:54:23;103389.69;;;8.09;100.00
59787;BME280;45672;51.612;5.536;2023-02-11T11:56:55;103380.56;;;8.15;100.00
59787;BME280;45672;51.612;5.536;2023-02-11T11:59:23;103381.03;;;8.23;100.00
59787;BME280;45672;51.612;5.536;2023-02-11T12:05:45;103387.94;;;8.45;100.00
59787;BME280;45672;51.612;5.536;2023-02-11T12:08:14;103382.22;;;8.53;100.00
59787;BME280;45672;51.612;5.536;2023-02-11T12:11:46;103371.41;;;8.57;100.00
59787;BME280;45672;51.612;5.536;2023-02-11T12:17:51;103370.34;;;8.77;100.00
59787;BME280;45672;51.612;5.536;2023-02-11T12:20:39;103362.97;;;8.83;100.00
59787;BME280;45672;51.612;5.536;2023-02-11T12:29:12;103356.78;;;9.00;100.00
59787;BME280;45672;51.612;5.536;2023-02-11T12:37:31;103345.72;;;8.91;100.00
59787;BME280;45672;51.612;5.536;2023-02-11T12:40:16;103343.16;;;8.90;100.00
59787;BME280;45672;51.612;5.536;2023-02-11T12:42:54;103345.13;;;9.02;100.00
59787;BME280;45672;51.612;5.536;2023-02-11T12:54:26;103348.00;;;9.63;100.00
59787;BME280;45672;51.612;5.536;2023-02-11T12:57:05;103349.53;;;9.67;100.00
59787;BME280;45672;51.612;5.536;2023-02-11T13:02:10;103339.69;;;9.53;100.00
59787;BME280;45672;51.612;5.536;2023-02-11T13:04:44;103334.91;;;9.44;100.00
59787;BME280;45672;51.612;5.536;2023-02-11T13:07:18;103339.69;;;9.37;100.00
59787;BME280;45672;51.612;5.536;2023-02-11T13:10:10;103339.16;;;9.30;100.00
59787;BME280;45672;51.612;5.536;2023-02-11T13:12:42;103340.38;;;9.25;100.00
59787;BME280;45672;51.612;5.536;2023-02-11T13:15:28;103344.66;;;9.27;100.00
59787;BME280;45672;51.612;5.536;2023-02-11T13:18:05;103337.38;;;9.31;100.00
59787;BME280;45672;51.612;5.536;2023-02-11T13:29:12;103350.31;;;9.37;100.00
59787;BME280;45672;51.612;5.536;2023-02-11T13:31:39;103343.72;;;9.44;100.00
59787;BME280;45672;51.612;5.536;2023-02-11T13:34:23;103341.50;;;9.53;100.00
59787;BME280;45672;51.612;5.536;2023-02-11T13:36:53;103342.88;;;9.60;100.00
59787;BME280;45672;51.612;5.536;2023-02-11T13:39:20;103346.19;;;9.63;100.00
59787;BME280;45672;51.612;5.536;2023-02-11T13:41:46;103344.81;;;9.72;100.00
59787;BME280;45672;51.612;5.536;2023-02-11T13:46:50;103342.16;;;9.72;100.00
59787;BME280;45672;51.612;5.536;2023-02-11T13:49:31;103335.56;;;9.63;100.00
59787;BME280;45672;51.612;5.536;2023-02-11T13:51:58;103330.69;;;9.56;100.00
59787;BME280;45672;51.612;5.536;2023-02-11T13:54:31;103336.00;;;9.56;100.00
59787;BME280;45672;51.612;5.536;2023-02-11T13:59:45;103341.22;;;9.73;100.00
59787;BME280;45672;51.612;5.536;2023-02-11T14:05:33;103336.69;;;9.75;100.00
59787;BME280;45672;51.612;5.536;2023-02-11T14:08:22;103346.09;;;9.81;100.00
59787;BME280;45672;51.612;5.536;2023-02-11T14:16:16;103363.41;;;9.88;99.97
59787;BME280;45672;51.612;5.536;2023-02-11T14:29:26;103358.66;;;9.93;99.12
59787;BME280;45672;51.612;5.536;2023-02-11T14:32:03;103348.13;;;9.92;99.15
59787;BME280;45672;51.612;5.536;2023-02-11T14:42:30;103343.06;;;9.87;98.80
59787;BME280;45672;51.612;5.536;2023-02-11T14:45:18;103336.91;;;9.87;99.22
59787;BME280;45672;51.612;5.536;2023-02-11T14:47:51;103353.09;;;9.82;99.31
59787;BME280;45672;51.612;5.536;2023-02-11T14:50:41;103356.56;;;9.84;99.67
59787;BME280;45672;51.612;5.536;2023-02-11T14:53:14;103357.59;;;9.81;99.45
59787;BME280;45672;51.612;5.536;2023-02-11T14:55:42;103361.34;;;9.77;98.99
59787;BME280;45672;51.612;5.536;2023-02-11T15:01:03;103357.16;;;9.73;99.46
59787;BME280;45672;51.612;5.536;2023-02-11T15:06:22;103358.13;;;9.72;99.48